Terminal Aerodrome Forecast
Issued by NWS Northern Indiana

Home | Current Version | Previous Version | Graphics & Text | Print | Product List | Glossary On
Versions: 1 2 3 4 5 6 7 8 9 10 11 12
240
FTUS43 KIWX 220538
TAFFWA
TAF
KFWA 220538Z 2206/2306 32004KT P6SM SKC
     FM221500 35009KT P6SM SCT050
     FM230000 04004KT P6SM SKC=

USA.gov is the U.S. government's official web portal to all federal, state and local government web resources and services.